createdAt,value
2023-02-06T00:01:38.891Z,7.27
2023-02-06T00:04:06.202Z,10.20
2023-02-06T00:06:34.199Z,8.10
2023-02-06T00:09:01.410Z,11.50
2023-02-06T00:11:29.151Z,10.90
2023-02-06T00:13:56.337Z,12.90
2023-02-06T00:16:31.796Z,6.63
2023-02-06T00:19:00.356Z,8.30
2023-02-06T00:21:29.705Z,8.70
2023-02-06T00:23:59.738Z,10.50
2023-02-06T00:26:27.490Z,13.50
2023-02-06T00:28:54.590Z,10.53
2023-02-06T00:31:22.093Z,9.87
2023-02-06T00:33:49.377Z,10.90
2023-02-06T00:36:16.634Z,11.43
2023-02-06T00:38:43.809Z,9.77
2023-02-06T00:41:11.013Z,13.93
2023-02-06T00:43:38.225Z,11.33
2023-02-06T00:46:05.782Z,11.03
2023-02-06T00:48:32.935Z,11.87
2023-02-06T00:51:00.110Z,9.20
2023-02-06T00:53:27.487Z,8.60
2023-02-06T00:55:54.753Z,12.80
2023-02-06T00:58:22.591Z,11.93
2023-02-06T01:00:49.817Z,10.43
2023-02-06T01:03:17.563Z,9.27
2023-02-06T01:05:44.819Z,11.53
2023-02-06T01:08:12.244Z,7.50
2023-02-06T01:10:42.592Z,7.63
2023-02-06T01:13:10.441Z,8.60
2023-02-06T01:15:38.120Z,9.80
2023-02-06T01:18:05.307Z,7.90
2023-02-06T01:20:32.846Z,10.67
2023-02-06T01:23:00.088Z,11.27
2023-02-06T01:25:27.850Z,11.70
2023-02-06T01:27:55.047Z,12.73
2023-02-06T01:30:22.311Z,8.00
2023-02-06T01:32:49.860Z,16.80
2023-02-06T01:35:16.957Z,9.37
2023-02-06T01:37:44.160Z,13.30
2023-02-06T01:40:15.806Z,11.77
2023-02-06T01:42:44.003Z,14.43
2023-02-06T01:45:26.307Z,12.73
2023-02-06T01:48:10.098Z,9.90
2023-02-06T01:50:40.145Z,11.23
2023-02-06T01:53:11.218Z,15.03
2023-02-06T01:55:40.406Z,7.73
2023-02-06T01:58:10.266Z,11.00
2023-02-06T02:00:38.057Z,11.80
2023-02-06T02:03:05.697Z,11.80
2023-02-06T02:05:33.739Z,10.93
2023-02-06T02:08:16.790Z,11.80
2023-02-06T02:10:44.334Z,10.00
2023-02-06T02:13:11.437Z,12.40
2023-02-06T02:16:17.342Z,9.33
2023-02-06T02:19:23.051Z,12.80
2023-02-06T02:22:24.394Z,8.60
2023-02-06T02:25:31.460Z,14.70
2023-02-06T02:28:15.805Z,7.67
2023-02-06T02:31:08.449Z,7.80
2023-02-06T02:34:03.483Z,12.63
2023-02-06T02:37:12.280Z,9.40
2023-02-06T02:40:00.336Z,13.50
2023-02-06T02:42:36.470Z,11.00
2023-02-06T02:45:24.307Z,14.03
2023-02-06T02:48:14.483Z,11.23
2023-02-06T02:50:42.038Z,9.00
2023-02-06T02:53:09.466Z,9.40
2023-02-06T02:55:36.812Z,8.53
2023-02-06T02:58:15.934Z,9.53
2023-02-06T03:00:51.523Z,13.67
2023-02-06T03:03:22.901Z,9.80
2023-02-06T03:06:23.756Z,8.50
2023-02-06T03:09:09.244Z,12.33
2023-02-06T03:11:44.549Z,10.17
2023-02-06T03:14:43.072Z,8.80
2023-02-06T03:17:15.171Z,11.20
2023-02-06T03:19:58.331Z,21.17
2023-02-06T03:22:28.173Z,9.27
2023-02-06T03:24:57.356Z,13.23
2023-02-06T03:27:27.389Z,14.53
2023-02-06T03:29:56.589Z,8.60
2023-02-06T03:32:30.656Z,9.33
2023-02-06T03:35:08.482Z,11.63
2023-02-06T03:37:36.961Z,8.23
2023-02-06T03:40:07.000Z,13.47
2023-02-06T03:42:39.365Z,10.80
2023-02-06T03:45:15.387Z,13.80
2023-02-06T03:47:44.191Z,10.63
2023-02-06T03:50:14.969Z,8.87
2023-02-06T03:52:49.153Z,11.00
2023-02-06T03:55:23.636Z,12.23
2023-02-06T03:58:13.974Z,9.93
2023-02-06T04:00:43.372Z,9.87
2023-02-06T04:03:11.617Z,10.33
2023-02-06T04:05:40.112Z,9.40
2023-02-06T04:08:07.553Z,11.00
2023-02-06T04:10:34.848Z,8.50
2023-02-06T04:13:02.017Z,10.90
2023-02-06T04:15:29.094Z,10.67
2023-02-06T04:18:01.500Z,7.93
2023-02-06T04:20:30.299Z,10.90
2023-02-06T04:22:58.766Z,9.93
2023-02-06T04:25:26.110Z,10.00
2023-02-06T04:27:53.244Z,10.67
2023-02-06T04:30:20.512Z,13.93
2023-02-06T04:32:47.676Z,9.53
2023-02-06T04:35:14.821Z,7.83
2023-02-06T04:37:42.051Z,10.27
2023-02-06T04:40:10.043Z,12.30
2023-02-06T04:42:37.746Z,14.10
2023-02-06T04:45:05.430Z,9.33
2023-02-06T04:47:32.627Z,11.70
2023-02-06T04:49:59.798Z,11.93
2023-02-06T04:52:29.755Z,16.07
2023-02-06T04:54:56.937Z,14.13
2023-02-06T04:57:24.423Z,13.47
2023-02-06T04:59:51.491Z,11.90
2023-02-06T05:02:18.722Z,8.97
2023-02-06T05:04:45.849Z,9.67
2023-02-06T05:07:13.067Z,7.60
2023-02-06T05:09:40.180Z,9.23
2023-02-06T05:12:07.805Z,11.57
2023-02-06T05:14:36.203Z,9.33
2023-02-06T05:17:03.346Z,9.97
2023-02-06T05:19:30.389Z,6.57
2023-02-06T05:21:57.532Z,8.90
2023-02-06T05:24:24.906Z,5.33
2023-02-06T05:26:52.091Z,9.37
2023-02-06T05:29:19.228Z,11.47
2023-02-06T05:31:46.412Z,6.67
2023-02-06T05:34:13.518Z,8.60
2023-02-06T05:36:40.615Z,7.10
2023-02-06T05:39:07.801Z,9.67
2023-02-06T05:41:35.247Z,10.20
2023-02-06T05:44:02.437Z,9.80
2023-02-06T05:46:29.600Z,11.23
2023-02-06T05:48:56.831Z,8.57
2023-02-06T05:51:23.924Z,8.13
2023-02-06T05:53:51.103Z,12.13
2023-02-06T05:56:18.201Z,10.87
2023-02-06T05:58:45.468Z,12.60
2023-02-06T06:01:13.645Z,17.00
2023-02-06T06:03:40.810Z,10.93
2023-02-06T06:06:08.478Z,12.53
2023-02-06T06:08:35.869Z,11.30
2023-02-06T06:11:03.438Z,12.20
2023-02-06T06:13:30.644Z,9.80
2023-02-06T06:15:57.839Z,9.67
2023-02-06T06:18:25.076Z,9.43
2023-02-06T06:20:53.211Z,8.47
2023-02-06T06:23:20.584Z,8.30
2023-02-06T06:25:48.519Z,13.07
2023-02-06T06:28:16.093Z,11.00
2023-02-06T06:30:43.626Z,10.33
2023-02-06T06:33:10.870Z,12.17
2023-02-06T06:35:38.415Z,12.57
2023-02-06T06:38:05.665Z,10.67
2023-02-06T06:40:32.808Z,14.97
2023-02-06T06:42:59.960Z,19.77
2023-02-06T06:45:27.230Z,16.60
2023-02-06T06:47:59.097Z,16.83
2023-02-06T06:50:26.701Z,23.77
2023-02-06T06:52:53.970Z,12.87
2023-02-06T06:55:21.125Z,19.20
2023-02-06T06:57:48.253Z,10.83
2023-02-06T07:00:16.350Z,13.80
2023-02-06T07:02:44.033Z,12.37
2023-02-06T07:05:11.595Z,15.33
2023-02-06T07:07:41.640Z,11.47
2023-02-06T07:10:10.030Z,10.97
2023-02-06T07:12:37.422Z,14.70
2023-02-06T07:15:06.063Z,12.20
2023-02-06T07:17:33.310Z,12.60
2023-02-06T07:20:00.430Z,13.80
2023-02-06T07:22:27.540Z,14.33
2023-02-06T07:24:54.730Z,14.73
2023-02-06T07:27:21.894Z,15.50
2023-02-06T07:29:48.995Z,12.57
2023-02-06T07:32:16.198Z,14.27
2023-02-06T07:34:43.298Z,10.73
2023-02-06T07:37:10.598Z,12.20
2023-02-06T07:39:37.764Z,10.70
2023-02-06T07:42:05.386Z,16.80
2023-02-06T07:44:48.603Z,12.03
2023-02-06T07:47:15.751Z,12.83
2023-02-06T07:49:42.800Z,13.63
2023-02-06T07:52:09.862Z,20.73
2023-02-06T07:54:37.047Z,15.47
2023-02-06T07:57:04.304Z,15.80
2023-02-06T07:59:31.458Z,17.00
2023-02-06T08:01:59.899Z,17.00
2023-02-06T08:04:29.481Z,15.00
2023-02-06T08:06:56.722Z,12.57
2023-02-06T08:09:23.845Z,14.10
2023-02-06T08:11:50.906Z,14.63
2023-02-06T08:14:17.948Z,19.50
2023-02-06T08:16:45.200Z,15.33
2023-02-06T08:19:12.395Z,16.47
2023-02-06T08:21:39.596Z,29.73
2023-02-06T08:24:07.528Z,14.47
2023-02-06T08:26:34.639Z,13.40
2023-02-06T08:29:05.303Z,15.80
2023-02-06T08:31:39.711Z,12.40
2023-02-06T08:34:10.421Z,9.37
2023-02-06T08:36:37.577Z,15.67
2023-02-06T08:39:05.814Z,14.27
2023-02-06T08:41:38.875Z,11.53
2023-02-06T08:44:11.931Z,13.60
2023-02-06T08:46:40.668Z,12.50
2023-02-06T08:49:16.719Z,14.47
2023-02-06T08:51:45.592Z,12.00
2023-02-06T08:54:17.382Z,14.87
2023-02-06T08:56:44.770Z,14.43
2023-02-06T08:59:14.245Z,19.37
2023-02-06T09:01:42.610Z,14.17
2023-02-06T09:04:11.908Z,15.17
2023-02-06T09:06:43.939Z,16.30
2023-02-06T09:09:13.441Z,22.07
2023-02-06T09:11:41.353Z,16.17
2023-02-06T09:14:14.652Z,11.87
2023-02-06T09:16:42.208Z,20.47
2023-02-06T09:19:11.295Z,16.17
2023-02-06T09:21:38.741Z,15.17
2023-02-06T09:24:09.126Z,16.33
2023-02-06T09:26:57.327Z,20.10
2023-02-06T09:29:29.414Z,15.17
2023-02-06T09:31:57.840Z,16.83
2023-02-06T09:34:26.119Z,17.23
2023-02-06T09:36:54.712Z,15.90
2023-02-06T09:39:22.598Z,14.17
2023-02-06T09:41:55.398Z,18.63
2023-02-06T09:44:48.685Z,15.57
2023-02-06T09:47:30.214Z,14.30
2023-02-06T09:50:11.200Z,19.20
2023-02-06T09:53:38.929Z,14.13
2023-02-06T09:56:29.374Z,17.73
2023-02-06T09:59:10.263Z,15.00
2023-02-06T10:01:50.156Z,14.77
2023-02-06T10:04:44.603Z,21.37
2023-02-06T10:07:30.905Z,16.03
2023-02-06T10:10:13.893Z,19.50
2023-02-06T10:13:33.692Z,20.00
2023-02-06T10:16:34.927Z,15.20
2023-02-06T10:19:19.258Z,14.23
2023-02-06T10:21:56.528Z,18.67
2023-02-06T10:24:45.097Z,20.43
2023-02-06T10:27:15.940Z,27.23
2023-02-06T10:29:45.360Z,22.90
2023-02-06T10:32:50.421Z,23.07
2023-02-06T10:35:42.724Z,22.67
2023-02-06T10:39:06.155Z,30.10
2023-02-06T10:41:45.079Z,21.57
2023-02-06T10:44:37.925Z,28.27
2023-02-06T10:47:34.295Z,20.70
2023-02-06T10:50:33.614Z,21.93
2023-02-06T10:53:35.532Z,21.87
2023-02-06T10:56:18.604Z,22.60
2023-02-06T10:58:53.318Z,28.40
2023-02-06T11:01:26.486Z,23.70
2023-02-06T11:04:12.586Z,18.73
2023-02-06T11:06:42.610Z,21.53
2023-02-06T11:09:10.922Z,23.40
2023-02-06T11:11:51.381Z,23.37
2023-02-06T11:14:25.285Z,25.57
2023-02-06T11:16:53.650Z,28.13
2023-02-06T11:19:38.854Z,20.47
2023-02-06T11:22:16.751Z,32.63
2023-02-06T11:25:28.494Z,26.47
2023-02-06T11:27:58.069Z,23.83
2023-02-06T11:30:35.378Z,22.37
2023-02-06T11:33:22.151Z,22.87
2023-02-06T11:36:05.257Z,24.60
2023-02-06T11:38:33.572Z,27.37
2023-02-06T11:41:18.272Z,22.03
2023-02-06T11:43:52.129Z,22.23
2023-02-06T11:46:25.233Z,21.00
2023-02-06T11:49:02.251Z,20.50
2023-02-06T11:51:54.293Z,26.60
2023-02-06T11:54:29.097Z,24.70
2023-02-06T11:57:19.176Z,23.40
2023-02-06T11:59:58.320Z,25.00
2023-02-06T12:02:37.870Z,22.13
2023-02-06T12:05:18.037Z,24.63
2023-02-06T12:08:02.353Z,25.93
2023-02-06T12:10:35.030Z,24.90
2023-02-06T12:13:21.358Z,22.50
2023-02-06T12:15:53.477Z,24.10
2023-02-06T12:18:29.001Z,20.77
2023-02-06T12:21:05.276Z,19.90
2023-02-06T12:24:00.012Z,22.03
2023-02-06T12:26:33.947Z,20.63
2023-02-06T12:29:15.179Z,20.27
2023-02-06T12:31:57.476Z,19.40
2023-02-06T12:35:09.604Z,18.97
2023-02-06T12:37:43.790Z,22.03
2023-02-06T12:40:35.050Z,17.70
2023-02-06T12:43:08.712Z,20.90
2023-02-06T12:46:05.555Z,18.60
2023-02-06T12:49:05.487Z,21.53
2023-02-06T12:51:48.836Z,25.00
2023-02-06T12:54:25.416Z,25.43
2023-02-06T12:57:06.088Z,20.33
2023-02-06T13:00:05.521Z,19.70
2023-02-06T13:02:35.660Z,21.13
2023-02-06T13:05:16.133Z,19.40
2023-02-06T13:07:49.199Z,19.47
2023-02-06T13:10:24.986Z,21.23
2023-02-06T13:12:59.058Z,18.20
2023-02-06T13:15:40.107Z,23.17
2023-02-06T13:18:41.620Z,19.10
2023-02-06T13:21:18.518Z,21.20
2023-02-06T13:24:14.217Z,20.10
2023-02-06T13:26:53.182Z,20.33
2023-02-06T13:29:41.665Z,19.90
2023-02-06T13:32:14.911Z,24.57
2023-02-06T13:35:12.996Z,19.10
2023-02-06T13:37:48.198Z,21.60
2023-02-06T13:40:24.649Z,21.30
2023-02-06T13:43:13.827Z,24.70
2023-02-06T13:45:59.461Z,19.50
2023-02-06T13:48:47.621Z,17.10
2023-02-06T13:51:45.986Z,19.70
2023-02-06T13:54:35.696Z,19.77
2023-02-06T13:57:58.375Z,21.90
2023-02-06T14:00:30.231Z,19.80
2023-02-06T14:03:11.190Z,17.23
2023-02-06T14:05:55.304Z,20.27
2023-02-06T14:08:43.770Z,18.43
2023-02-06T14:11:42.006Z,18.07
2023-02-06T14:14:33.816Z,21.63
2023-02-06T14:17:44.224Z,18.10
2023-02-06T14:20:33.241Z,17.63
2023-02-06T14:23:55.614Z,17.53
2023-02-06T14:27:00.983Z,16.33
2023-02-06T14:30:00.822Z,16.40
2023-02-06T14:33:34.737Z,17.83
2023-02-06T14:36:46.543Z,13.63
2023-02-06T14:39:47.232Z,16.13
2023-02-06T14:42:53.709Z,14.10
2023-02-06T14:45:41.034Z,14.50
2023-02-06T14:48:57.530Z,14.53
2023-02-06T14:51:43.227Z,14.93
2023-02-06T14:54:36.681Z,16.57
2023-02-06T14:57:16.501Z,21.23
2023-02-06T15:00:01.928Z,20.23
2023-02-06T15:02:35.545Z,19.77
2023-02-06T15:05:04.661Z,24.13
2023-02-06T15:07:36.307Z,22.63
2023-02-06T15:10:18.360Z,24.03
2023-02-06T15:12:53.641Z,22.40
2023-02-06T15:15:27.545Z,20.33
2023-02-06T15:18:04.541Z,31.67
2023-02-06T15:20:41.829Z,26.17
2023-02-06T15:23:18.845Z,22.83
2023-02-06T15:26:06.200Z,29.83
2023-02-06T15:28:35.180Z,24.93
2023-02-06T15:31:03.278Z,30.80
2023-02-06T15:33:35.126Z,30.97
2023-02-06T15:36:04.692Z,34.90
2023-02-06T15:38:33.657Z,30.47
2023-02-06T15:41:05.836Z,28.23
2023-02-06T15:43:34.020Z,32.93
2023-02-06T15:46:05.127Z,34.00
2023-02-06T15:48:53.702Z,30.43
2023-02-06T15:51:45.914Z,29.47
2023-02-06T15:54:16.180Z,31.10
2023-02-06T15:56:49.623Z,35.33
2023-02-06T15:59:23.044Z,33.27
2023-02-06T16:01:54.362Z,35.93
2023-02-06T16:04:39.857Z,41.57
2023-02-06T16:07:19.350Z,38.27
2023-02-06T16:10:04.569Z,41.23
2023-02-06T16:12:37.987Z,38.30
2023-02-06T16:15:28.998Z,33.97
2023-02-06T16:17:58.684Z,34.60
2023-02-06T16:20:41.071Z,35.60
2023-02-06T16:23:27.909Z,37.00
2023-02-06T16:26:15.882Z,44.10
2023-02-06T16:29:09.895Z,32.33
2023-02-06T16:31:43.834Z,35.20
2023-02-06T16:34:40.810Z,39.47
2023-02-06T16:37:50.780Z,35.50
2023-02-06T16:40:19.139Z,39.37
2023-02-06T16:42:48.036Z,41.53
2023-02-06T16:45:25.358Z,38.40
2023-02-06T16:47:53.631Z,31.90
2023-02-06T16:50:21.828Z,30.50
2023-02-06T16:52:55.250Z,28.40
2023-02-06T16:55:26.004Z,27.50
2023-02-06T16:57:59.007Z,33.30
2023-02-06T17:00:31.901Z,32.63
2023-02-06T17:02:59.462Z,36.27
2023-02-06T17:05:28.463Z,27.37
2023-02-06T17:07:55.947Z,28.70
2023-02-06T17:10:26.699Z,24.80
2023-02-06T17:12:54.254Z,20.53
2023-02-06T17:15:21.811Z,20.27
2023-02-06T17:17:54.860Z,22.40
2023-02-06T17:20:42.226Z,17.77
2023-02-06T17:23:12.600Z,22.67
2023-02-06T17:25:41.669Z,21.90
2023-02-06T17:28:15.720Z,18.87
2023-02-06T17:30:44.282Z,22.40
2023-02-06T17:33:12.410Z,25.63
2023-02-06T17:35:39.677Z,24.50
2023-02-06T17:38:09.005Z,21.77
2023-02-06T17:40:40.024Z,25.13
2023-02-06T17:43:07.770Z,22.00
2023-02-06T17:45:38.948Z,24.03
2023-02-06T17:48:07.040Z,20.13
2023-02-06T17:50:36.983Z,23.43
2023-02-06T17:53:05.974Z,27.70
2023-02-06T17:55:35.216Z,20.50
2023-02-06T17:58:03.139Z,24.20
2023-02-06T18:00:31.499Z,23.30
2023-02-06T18:03:00.033Z,20.60
2023-02-06T18:05:28.019Z,20.97
2023-02-06T18:07:57.635Z,39.87
2023-02-06T18:10:26.544Z,24.60
2023-02-06T18:12:56.280Z,23.83
2023-02-06T18:15:23.500Z,29.63
2023-02-06T18:17:51.630Z,28.03
2023-02-06T18:20:19.060Z,28.00
2023-02-06T18:22:49.895Z,28.20
2023-02-06T18:25:17.048Z,28.13
2023-02-06T18:27:46.093Z,33.60
2023-02-06T18:30:15.004Z,29.30
2023-02-06T18:32:42.496Z,36.50
2023-02-06T18:35:10.345Z,22.70
2023-02-06T18:37:37.733Z,25.67
2023-02-06T18:40:05.672Z,29.77
2023-02-06T18:42:51.728Z,26.30
2023-02-06T18:45:25.568Z,26.90
2023-02-06T18:47:52.930Z,28.57
2023-02-06T18:50:22.210Z,24.63
2023-02-06T18:52:50.736Z,30.30
2023-02-06T18:55:20.120Z,34.53
2023-02-06T18:57:47.711Z,34.20
2023-02-06T19:00:18.768Z,33.93
2023-02-06T19:02:46.152Z,29.07
2023-02-06T19:05:13.746Z,31.73
2023-02-06T19:07:43.630Z,28.77
2023-02-06T19:10:13.008Z,34.10
2023-02-06T19:12:40.491Z,31.37
2023-02-06T19:15:10.327Z,28.90
2023-02-06T19:17:38.256Z,32.27
2023-02-06T19:20:06.660Z,33.53
2023-02-06T19:22:35.843Z,31.40
2023-02-06T19:25:05.045Z,34.00
2023-02-06T19:27:32.186Z,34.80
2023-02-06T19:29:59.527Z,27.33
2023-02-06T19:32:29.315Z,25.33
2023-02-06T19:34:57.940Z,24.70
2023-02-06T19:37:25.602Z,28.03
2023-02-06T19:39:52.711Z,34.90
2023-02-06T19:42:20.562Z,35.73
2023-02-06T19:44:55.178Z,42.40
2023-02-06T19:47:23.166Z,29.20
2023-02-06T19:49:52.649Z,31.30
2023-02-06T19:52:21.281Z,37.93
2023-02-06T19:54:48.790Z,34.23
2023-02-06T19:57:16.200Z,33.00
2023-02-06T19:59:43.466Z,34.60
2023-02-06T20:02:15.377Z,31.23
2023-02-06T20:04:45.289Z,33.13
2023-02-06T20:07:12.845Z,37.80
2023-02-06T20:09:42.072Z,39.33
2023-02-06T20:12:12.774Z,36.63
2023-02-06T20:14:40.056Z,32.67
2023-02-06T20:17:07.319Z,30.80
2023-02-06T20:19:34.829Z,36.57
2023-02-06T20:22:03.186Z,34.67
2023-02-06T20:24:33.639Z,45.13
2023-02-06T20:27:05.816Z,33.23
2023-02-06T20:29:38.313Z,33.00
2023-02-06T20:32:07.045Z,45.60
2023-02-06T20:34:35.362Z,40.23
2023-02-06T20:37:02.859Z,33.60
2023-02-06T20:39:31.189Z,30.33
2023-02-06T20:41:59.075Z,33.63
2023-02-06T20:44:26.612Z,30.30
2023-02-06T20:46:54.166Z,33.67
2023-02-06T20:49:26.112Z,28.60
2023-02-06T20:51:54.428Z,31.40
2023-02-06T20:54:22.494Z,28.30
2023-02-06T20:56:50.150Z,34.60
2023-02-06T20:59:20.412Z,39.40
2023-02-06T21:01:47.727Z,35.40
2023-02-06T21:04:17.407Z,37.73
2023-02-06T21:06:47.988Z,35.70
2023-02-06T21:09:16.093Z,41.50
2023-02-06T21:11:46.799Z,34.43
2023-02-06T21:14:15.449Z,44.33
2023-02-06T21:16:43.976Z,37.60
2023-02-06T21:19:14.689Z,38.70
2023-02-06T21:21:44.891Z,45.20
2023-02-06T21:24:14.400Z,34.97
2023-02-06T21:26:42.258Z,36.97
2023-02-06T21:29:12.590Z,35.47
2023-02-06T21:31:40.161Z,32.27
2023-02-06T21:34:17.047Z,36.20
2023-02-06T21:36:45.342Z,31.77
2023-02-06T21:39:20.528Z,35.43
2023-02-06T21:41:51.688Z,29.17
2023-02-06T21:44:20.165Z,30.37
2023-02-06T21:46:47.307Z,30.93
2023-02-06T21:49:14.840Z,40.03
2023-02-06T21:51:42.054Z,32.00
2023-02-06T21:54:10.037Z,31.27
2023-02-06T21:56:40.419Z,30.80
2023-02-06T21:59:09.249Z,31.43
2023-02-06T22:01:36.663Z,30.17
2023-02-06T22:04:04.078Z,32.90
2023-02-06T22:06:32.417Z,25.03
2023-02-06T22:09:07.513Z,31.80
2023-02-06T22:11:39.646Z,34.00
2023-02-06T22:14:25.140Z,33.33
2023-02-06T22:16:53.582Z,33.27
2023-02-06T22:19:21.400Z,28.83
2023-02-06T22:21:48.576Z,34.77
2023-02-06T22:24:15.687Z,28.03
2023-02-06T22:26:43.560Z,27.13
2023-02-06T22:29:15.128Z,27.20
2023-02-06T22:31:43.824Z,29.30
2023-02-06T22:34:20.752Z,23.47
2023-02-06T22:36:51.174Z,25.60
2023-02-06T22:39:19.043Z,22.47
2023-02-06T22:41:47.141Z,21.93
2023-02-06T22:44:18.644Z,23.07
2023-02-06T22:46:50.377Z,33.10
2023-02-06T22:49:20.040Z,28.30
2023-02-06T22:51:47.713Z,45.93
2023-02-06T22:54:15.492Z,42.07
2023-02-06T22:56:43.633Z,36.03
2023-02-06T22:59:22.498Z,29.90
2023-02-06T23:01:54.129Z,29.67
2023-02-06T23:04:28.835Z,27.63
2023-02-06T23:06:57.083Z,24.30
2023-02-06T23:09:28.632Z,22.70
2023-02-06T23:11:58.453Z,25.13
2023-02-06T23:14:28.444Z,28.90
2023-02-06T23:16:55.777Z,26.03
2023-02-06T23:19:23.173Z,22.57
2023-02-06T23:21:54.216Z,21.10
2023-02-06T23:24:21.530Z,27.63
2023-02-06T23:26:51.650Z,24.30
2023-02-06T23:29:20.860Z,26.90
2023-02-06T23:31:49.137Z,26.37
2023-02-06T23:34:18.396Z,26.43
2023-02-06T23:36:46.334Z,21.37
2023-02-06T23:39:14.079Z,22.27
2023-02-06T23:41:41.782Z,23.90
2023-02-06T23:44:10.262Z,22.40
2023-02-06T23:46:39.517Z,22.57
2023-02-06T23:49:07.289Z,29.60
2023-02-06T23:51:35.897Z,24.47
2023-02-06T23:54:04.236Z,28.80
2023-02-06T23:56:32.478Z,20.67
2023-02-06T23:59:01.674Z,21.83
